createdAt,value
2019-06-08T00:00:56.444Z,100347.98
2019-06-08T00:03:28.296Z,100365.30
2019-06-08T00:06:00.062Z,100362.56
2019-06-08T00:08:31.790Z,100358.95
2019-06-08T00:11:03.766Z,100362.56
2019-06-08T00:13:34.556Z,100362.56
2019-06-08T00:16:06.759Z,100377.30
2019-06-08T00:18:37.465Z,100377.30
2019-06-08T00:21:09.294Z,100395.45
2019-06-08T00:23:40.911Z,100388.91
2019-06-08T00:26:13.930Z,100400.94
2019-06-08T00:28:45.821Z,100406.42
2019-06-08T00:31:17.405Z,100416.96
2019-06-08T00:33:49.409Z,100428.97
2019-06-08T00:36:21.260Z,100441.84
2019-06-08T00:38:52.871Z,100431.70
2019-06-08T00:41:25.444Z,100435.52
2019-06-08T00:43:57.260Z,100431.70
2019-06-08T00:46:28.857Z,100430.03
2019-06-08T00:49:00.736Z,100419.91
2019-06-08T00:51:31.488Z,100428.75
2019-06-08T00:54:03.139Z,100437.61
2019-06-08T00:56:34.701Z,100441.20
2019-06-08T00:59:05.624Z,100453.03
2019-06-08T01:01:37.323Z,100444.76
2019-06-08T01:04:08.997Z,100444.76
2019-06-08T01:06:40.993Z,100458.07
2019-06-08T01:09:12.751Z,100457.87
2019-06-08T01:11:43.487Z,100442.46
2019-06-08T01:14:15.293Z,100446.23
2019-06-08T01:16:47.673Z,100465.87
2019-06-08T01:19:19.188Z,100488.42
2019-06-08T01:21:50.853Z,100488.42
2019-06-08T01:24:23.613Z,100500.25
2019-06-08T01:26:55.618Z,100496.47
2019-06-08T01:29:28.323Z,100468.16
2019-06-08T01:32:00.714Z,100476.39
2019-06-08T01:34:31.497Z,100476.39
2019-06-08T01:37:03.186Z,100494.55
2019-06-08T01:39:34.697Z,100499.64
2019-06-08T01:42:05.374Z,100508.89
2019-06-08T01:44:36.892Z,100523.44
2019-06-08T01:47:08.811Z,100539.89
2019-06-08T01:49:40.593Z,100552.77
2019-06-08T01:52:11.650Z,100564.56
2019-06-08T01:54:42.489Z,100556.76
2019-06-08T01:57:14.305Z,100556.76
2019-06-08T01:59:45.828Z,100548.73
2019-06-08T02:02:17.764Z,100528.48
2019-06-08T02:04:49.382Z,100512.70
2019-06-08T02:07:21.332Z,100498.52
2019-06-08T02:09:53.052Z,100489.51
2019-06-08T02:12:24.843Z,100495.19
2019-06-08T02:14:56.349Z,100494.55
2019-06-08T02:17:29.259Z,100486.72
2019-06-08T02:20:01.146Z,100501.73
2019-06-08T02:22:33.041Z,100505.52
2019-06-08T02:25:05.217Z,100515.66
2019-06-08T02:27:37.298Z,100520.09
2019-06-08T02:30:10.810Z,100512.64
2019-06-08T02:32:42.439Z,100517.94
2019-06-08T02:35:14.302Z,100510.74
2019-06-08T02:37:45.819Z,100508.23
2019-06-08T02:40:20.298Z,100503.39
2019-06-08T02:42:52.233Z,100502.52
2019-06-08T02:45:23.822Z,100492.84
2019-06-08T02:47:55.398Z,100482.49
2019-06-08T02:50:54.789Z,100474.72
2019-06-08T02:53:35.991Z,100486.94
2019-06-08T02:56:07.289Z,100500.00
2019-06-08T02:58:40.829Z,100516.87
2019-06-08T03:01:12.095Z,100506.13
2019-06-08T03:03:43.793Z,100521.94
2019-06-08T03:06:15.745Z,100531.64
2019-06-08T03:08:46.557Z,100521.70
2019-06-08T03:11:18.769Z,100529.73
2019-06-08T03:13:50.716Z,100529.73
2019-06-08T03:16:22.041Z,100535.41
2019-06-08T03:18:53.759Z,100526.13
2019-06-08T03:21:25.319Z,100532.26
2019-06-08T03:23:56.874Z,100535.84
2019-06-08T03:26:28.783Z,100535.00
2019-06-08T03:29:00.619Z,100531.19
2019-06-08T03:31:34.512Z,100539.22
2019-06-08T03:34:05.146Z,100529.32
2019-06-08T03:36:43.376Z,100523.84
2019-06-08T03:39:11.305Z,100535.41
2019-06-08T03:41:45.023Z,100550.19
2019-06-08T03:44:16.335Z,100565.98
2019-06-08T03:46:48.069Z,100576.11
2019-06-08T03:49:37.079Z,100568.31
2019-06-08T03:51:53.794Z,100567.28
2019-06-08T03:54:25.600Z,100575.50
2019-06-08T03:56:57.316Z,100580.34
2019-06-08T03:59:29.361Z,100580.34
2019-06-08T04:02:01.100Z,100587.11
2019-06-08T04:04:32.775Z,100579.98
2019-06-08T04:07:04.394Z,100590.11
2019-06-08T04:09:37.636Z,100603.17
2019-06-08T04:12:09.336Z,100610.56
2019-06-08T04:14:42.172Z,100622.78
2019-06-08T04:17:14.578Z,100624.42
2019-06-08T04:20:09.052Z,100635.39
2019-06-08T04:22:18.389Z,100632.84
2019-06-08T04:24:50.555Z,100636.45
2019-06-08T04:27:22.795Z,100644.03
2019-06-08T04:29:54.349Z,100644.23
2019-06-08T04:32:26.222Z,100641.94
2019-06-08T04:34:58.119Z,100635.39
2019-06-08T04:37:29.653Z,100644.30
2019-06-08T04:40:01.192Z,100641.94
2019-06-08T04:42:33.101Z,100638.81
2019-06-08T04:45:04.773Z,100651.45
2019-06-08T04:47:38.292Z,100647.69
2019-06-08T04:50:22.645Z,100656.25
2019-06-08T04:52:45.059Z,100656.25
2019-06-08T04:55:16.595Z,100671.03
2019-06-08T04:57:50.611Z,100662.80
2019-06-08T05:00:22.219Z,100662.80
2019-06-08T05:02:53.668Z,100673.77
2019-06-08T05:05:24.480Z,100681.84
2019-06-08T05:07:56.185Z,100681.84
2019-06-08T05:10:28.299Z,100693.64
2019-06-08T05:13:00.309Z,100706.02
2019-06-08T05:15:32.003Z,100688.73
2019-06-08T05:18:04.018Z,100659.42
2019-06-08T05:20:39.305Z,100660.06
2019-06-08T05:23:09.227Z,100665.55
2019-06-08T05:25:41.220Z,100667.87
2019-06-08T05:28:13.295Z,100646.36
2019-06-08T05:30:45.402Z,100645.13
2019-06-08T05:33:17.439Z,100667.91
2019-06-08T05:35:49.797Z,100657.33
2019-06-08T05:38:21.712Z,100661.32
2019-06-08T05:40:53.581Z,100662.77
2019-06-08T05:43:26.025Z,100660.02
2019-06-08T05:45:57.614Z,100660.02
2019-06-08T05:48:29.449Z,100699.89
2019-06-08T05:51:04.216Z,100699.89
2019-06-08T05:53:34.418Z,100702.30
2019-06-08T05:56:06.302Z,100702.30
2019-06-08T05:58:38.151Z,100709.03
2019-06-08T06:01:09.719Z,100721.71
2019-06-08T06:03:40.384Z,100720.64
2019-06-08T06:06:12.304Z,100715.16
2019-06-08T06:08:44.666Z,100729.52
2019-06-08T06:11:16.301Z,100756.94
2019-06-08T06:13:48.953Z,100765.58
2019-06-08T06:16:20.837Z,100766.61
2019-06-08T06:18:52.465Z,100774.42
2019-06-08T06:21:24.622Z,100777.64
2019-06-08T06:23:56.364Z,100769.64
2019-06-08T06:26:28.064Z,100769.64
2019-06-08T06:28:59.719Z,100793.02
2019-06-08T06:31:30.494Z,100794.70
2019-06-08T06:34:02.341Z,100797.06
2019-06-08T06:39:18.740Z,100808.89
2019-06-08T06:41:50.292Z,100815.38
2019-06-08T06:44:21.921Z,100808.89
2019-06-08T06:46:54.299Z,100809.30
2019-06-08T06:49:25.858Z,100818.34
2019-06-08T06:51:58.002Z,100805.47
2019-06-08T06:54:29.790Z,100808.62
2019-06-08T06:57:01.502Z,100812.02
2019-06-08T06:59:33.418Z,100818.12
2019-06-08T07:02:05.298Z,100818.12
2019-06-08T07:04:36.796Z,100827.00
2019-06-08T07:07:08.326Z,100837.56
2019-06-08T07:09:40.307Z,100840.95
2019-06-08T07:12:11.886Z,100843.92
2019-06-08T07:14:44.954Z,100840.94
2019-06-08T07:17:17.305Z,100835.88
2019-06-08T07:19:49.034Z,100825.16
2019-06-08T07:22:20.749Z,100803.63
2019-06-08T07:24:52.563Z,100799.16
2019-06-08T07:27:25.298Z,100788.66
2019-06-08T07:31:21.388Z,100803.69
2019-06-08T07:33:53.633Z,100822.41
2019-06-08T07:36:25.614Z,100832.31
2019-06-08T07:38:57.787Z,100824.50
2019-06-08T07:41:29.578Z,100824.50
2019-06-08T07:44:38.397Z,100819.73
2019-06-08T07:47:10.294Z,100837.20
2019-06-08T07:49:41.977Z,100840.17
2019-06-08T07:52:13.988Z,100839.27
2019-06-08T07:54:45.740Z,100822.84
2019-06-08T07:57:16.444Z,100832.19
2019-06-08T07:59:49.048Z,100836.00
2019-06-08T08:02:21.779Z,100848.46
2019-06-08T08:04:54.586Z,100846.34
2019-06-08T08:07:25.459Z,100853.30
2019-06-08T08:09:57.304Z,100858.13
2019-06-08T08:12:28.528Z,100855.38
2019-06-08T08:15:00.300Z,100836.19
2019-06-08T08:17:34.408Z,100836.19
2019-06-08T08:20:07.598Z,100828.18
2019-06-08T08:22:39.367Z,100831.78
2019-06-08T08:25:11.745Z,100831.78
2019-06-08T08:27:43.360Z,100842.99
2019-06-08T08:33:01.724Z,100850.06
2019-06-08T08:35:32.745Z,100863.03
2019-06-08T08:38:04.658Z,100856.64
2019-06-08T08:40:38.835Z,100872.28
2019-06-08T08:43:10.984Z,100869.54
2019-06-08T08:45:42.749Z,100864.75
2019-06-08T08:48:24.672Z,100862.18
2019-06-08T08:50:48.359Z,100871.42
2019-06-08T08:53:21.289Z,100876.30
2019-06-08T08:55:52.792Z,100876.30
2019-06-08T08:58:24.829Z,100883.06
2019-06-08T09:00:59.472Z,100886.22
2019-06-08T09:03:33.675Z,100888.36
2019-06-08T09:06:04.018Z,100901.67
2019-06-08T09:08:37.729Z,100891.95
2019-06-08T09:11:09.788Z,100890.23
2019-06-08T09:13:41.787Z,100896.78
2019-06-08T09:16:13.858Z,100900.17
2019-06-08T09:18:47.864Z,100909.49
2019-06-08T09:21:19.750Z,100907.34
2019-06-08T09:23:52.275Z,100908.58
2019-06-08T09:26:24.299Z,100914.91
2019-06-08T09:28:56.185Z,100913.84
2019-06-08T09:34:14.810Z,100905.92
2019-06-08T09:36:42.585Z,100910.69
2019-06-08T09:40:03.513Z,100912.05
2019-06-08T09:42:35.777Z,100910.91
2019-06-08T09:45:09.783Z,100913.41
2019-06-08T09:47:42.299Z,100909.83
2019-06-08T09:50:13.897Z,100911.50
2019-06-08T09:52:47.916Z,100917.84
2019-06-08T09:55:19.557Z,100924.38
2019-06-08T09:57:51.755Z,100914.91
2019-06-08T10:00:26.365Z,100914.91
2019-06-08T10:03:01.120Z,100929.03
2019-06-08T10:05:30.601Z,100920.82
2019-06-08T10:08:04.153Z,100950.38
2019-06-08T10:10:35.741Z,100950.38
2019-06-08T10:13:09.547Z,100935.60
2019-06-08T10:15:39.971Z,100936.88
2019-06-08T10:18:11.848Z,100929.52
2019-06-08T10:20:44.107Z,100927.39
2019-06-08T10:23:28.132Z,100931.20
2019-06-08T10:25:49.773Z,100928.44
2019-06-08T10:28:21.734Z,100913.24
2019-06-08T10:30:55.415Z,100920.63
2019-06-08T10:33:28.188Z,100922.78
2019-06-08T10:36:02.364Z,100928.89
2019-06-08T10:38:33.793Z,100930.36
2019-06-08T10:41:12.002Z,100921.66
2019-06-08T10:43:39.298Z,100910.91
2019-06-08T10:46:16.648Z,100915.98
2019-06-08T10:48:44.765Z,100907.95
2019-06-08T10:51:18.151Z,100912.19
2019-06-08T10:53:52.522Z,100907.75
2019-06-08T10:56:23.141Z,100901.62
2019-06-08T10:58:55.382Z,100901.62
2019-06-08T11:01:28.283Z,100914.55
2019-06-08T11:04:01.968Z,100914.55
2019-06-08T11:06:34.313Z,100917.05
2019-06-08T11:09:12.711Z,100914.55
2019-06-08T11:11:41.319Z,100924.30
2019-06-08T11:14:13.794Z,100906.34
2019-06-08T11:16:47.560Z,100932.52
2019-06-08T11:19:19.296Z,100926.84
2019-06-08T11:21:51.293Z,100930.19
2019-06-08T11:24:25.193Z,100936.74
2019-06-08T11:26:57.733Z,100939.48
2019-06-08T11:29:30.793Z,100939.48
2019-06-08T11:32:04.150Z,100949.88
2019-06-08T11:34:37.723Z,100955.97
2019-06-08T11:37:13.082Z,100956.19
2019-06-08T11:39:43.381Z,100955.13
2019-06-08T11:42:15.310Z,100955.13
2019-06-08T11:44:47.987Z,100947.09
2019-06-08T11:47:20.773Z,100940.76
2019-06-08T11:49:53.277Z,100946.06
2019-06-08T11:52:25.872Z,100947.96
2019-06-08T11:55:00.663Z,100940.76
2019-06-08T11:57:31.908Z,100945.59
2019-06-08T12:00:10.951Z,100964.42
2019-06-08T12:02:38.368Z,100955.31
2019-06-08T12:05:12.622Z,100954.89
2019-06-08T12:07:44.294Z,100948.98
2019-06-08T12:10:17.771Z,100955.54
2019-06-08T12:12:48.492Z,100948.34
2019-06-08T12:15:21.149Z,100954.70
2019-06-08T12:17:52.725Z,100956.79
2019-06-08T12:20:24.519Z,100965.02
2019-06-08T12:22:55.384Z,100966.95
2019-06-08T12:25:26.785Z,100957.88
2019-06-08T12:27:58.633Z,100972.44
2019-06-08T12:30:32.340Z,100982.58
2019-06-08T12:33:03.343Z,100972.25
2019-06-08T12:35:34.818Z,100978.39
2019-06-08T12:38:09.611Z,100978.15
2019-06-08T12:40:41.081Z,100979.42
2019-06-08T12:43:14.131Z,100982.22
2019-06-08T12:45:45.502Z,100971.84
2019-06-08T12:48:22.380Z,100995.05
2019-06-08T12:50:50.385Z,100995.05
2019-06-08T12:53:23.187Z,100983.88
2019-06-08T12:55:54.741Z,100992.30
2019-06-08T12:58:27.578Z,100979.66
2019-06-08T13:00:59.318Z,100979.23
2019-06-08T13:03:30.822Z,100995.05
2019-06-08T13:06:02.759Z,100992.73
2019-06-08T13:08:34.247Z,101001.19
2019-06-08T13:11:09.046Z,100999.53
2019-06-08T13:13:39.407Z,100995.48
2019-06-08T13:16:10.805Z,100996.78
2019-06-08T13:18:42.385Z,100980.97
2019-06-08T13:21:26.518Z,100993.83
2019-06-08T13:23:48.047Z,101003.77
2019-06-08T13:26:25.662Z,101023.67
2019-06-08T13:28:52.969Z,101010.29
2019-06-08T13:31:24.844Z,101020.65
2019-06-08T13:33:58.545Z,101010.51
2019-06-08T13:36:30.497Z,101015.56
2019-06-08T13:39:01.984Z,101014.09
2019-06-08T13:41:33.586Z,101008.80
2019-06-08T13:44:05.219Z,100999.45
2019-06-08T13:46:37.940Z,100999.45
2019-06-08T13:49:10.230Z,101014.69
2019-06-08T13:51:41.735Z,101012.83
2019-06-08T13:54:14.782Z,101014.28
2019-06-08T13:56:47.916Z,101006.68
2019-06-08T13:59:25.787Z,101010.67
2019-06-08T14:01:53.977Z,101013.01
2019-06-08T14:04:25.534Z,101018.06
2019-06-08T14:06:58.319Z,101021.43
2019-06-08T14:09:31.410Z,101018.91
2019-06-08T14:12:03.817Z,101006.62
2019-06-08T14:14:39.642Z,101013.41
2019-06-08T14:17:08.853Z,101015.31
2019-06-08T14:19:40.434Z,101013.60
2019-06-08T14:22:12.322Z,101019.91
2019-06-08T14:24:43.878Z,101010.20
2019-06-08T14:27:15.510Z,101002.84
2019-06-08T14:29:48.513Z,101012.70
2019-06-08T14:32:22.120Z,101012.70
2019-06-08T14:34:53.794Z,101015.91
2019-06-08T14:37:27.915Z,101015.91
2019-06-08T14:39:58.879Z,101019.09
2019-06-08T14:42:31.827Z,101012.58
2019-06-08T14:45:03.774Z,101023.48
2019-06-08T14:47:37.526Z,101011.20
2019-06-08T14:50:08.712Z,101010.83
2019-06-08T14:52:40.752Z,101017.75
2019-06-08T14:55:12.326Z,101003.88
2019-06-08T14:57:43.853Z,101010.42
2019-06-08T15:00:20.483Z,101015.26
2019-06-08T15:02:51.308Z,101012.27
2019-06-08T15:05:23.320Z,101018.81
2019-06-08T15:08:00.459Z,101015.59
2019-06-08T15:10:31.184Z,101015.16
2019-06-08T15:13:02.502Z,101018.34
2019-06-08T15:15:33.987Z,101021.30
2019-06-08T15:18:08.164Z,101023.39
2019-06-08T15:20:39.780Z,101017.47
2019-06-08T15:23:11.752Z,101027.56
2019-06-08T15:25:42.492Z,101026.72
2019-06-08T15:28:14.754Z,101015.31
2019-06-08T15:30:45.607Z,101018.09
2019-06-08T15:33:18.194Z,101020.65
2019-06-08T15:35:50.841Z,101020.65
2019-06-08T15:38:23.856Z,101024.82
2019-06-08T15:40:57.660Z,101015.97
2019-06-08T15:43:34.487Z,101021.23
2019-06-08T15:46:03.333Z,101019.80
2019-06-08T15:48:38.019Z,101022.15
2019-06-08T15:51:09.067Z,101025.04
2019-06-08T15:53:40.777Z,101019.95
2019-06-08T15:56:12.538Z,101033.92
2019-06-08T15:58:44.778Z,101018.31
2019-06-08T16:01:16.772Z,101028.81
2019-06-08T16:03:47.596Z,101022.73
2019-06-08T16:06:19.332Z,101033.71
2019-06-08T16:08:51.301Z,101033.71
2019-06-08T16:11:24.080Z,101022.73
2019-06-08T16:13:56.342Z,101032.02
2019-06-08T16:16:29.161Z,101025.48
2019-06-08T16:19:01.311Z,101024.38
2019-06-08T16:21:35.738Z,101026.28
2019-06-08T16:24:09.775Z,101017.66
2019-06-08T16:26:52.615Z,101012.75
2019-06-08T16:29:14.986Z,101016.95
2019-06-08T16:31:46.845Z,101023.94
2019-06-08T16:34:19.354Z,101028.38
2019-06-08T16:36:50.853Z,101019.33
2019-06-08T16:39:22.405Z,101022.89
2019-06-08T16:41:53.838Z,101029.69
2019-06-08T16:44:25.369Z,101028.03
2019-06-08T16:46:57.203Z,101027.37
2019-06-08T16:49:29.175Z,101034.30
2019-06-08T16:52:00.979Z,101025.88
2019-06-08T16:54:32.864Z,101027.71
2019-06-08T16:57:10.363Z,101035.17
2019-06-08T16:59:38.725Z,101031.11
2019-06-08T17:02:10.802Z,101024.78
2019-06-08T17:04:42.603Z,101028.81
2019-06-08T17:07:13.486Z,101036.95
2019-06-08T17:09:45.420Z,101036.95
2019-06-08T17:12:17.266Z,101037.36
2019-06-08T17:14:48.945Z,101035.64
2019-06-08T17:17:21.398Z,101025.73
2019-06-08T17:19:53.436Z,101034.22
2019-06-08T17:22:25.293Z,101036.15
2019-06-08T17:24:57.425Z,101034.66
2019-06-08T17:27:29.058Z,101039.95
2019-06-08T17:30:08.100Z,101037.39
2019-06-08T17:32:35.862Z,101038.45
2019-06-08T17:35:08.301Z,101031.47
2019-06-08T17:37:41.915Z,101038.39
2019-06-08T17:40:13.745Z,101039.70
2019-06-08T17:42:45.478Z,101034.62
2019-06-08T17:45:17.305Z,101039.85
2019-06-08T17:47:48.995Z,101046.52
2019-06-08T17:50:20.337Z,101050.75
2019-06-08T17:52:52.629Z,101043.14
2019-06-08T17:55:24.810Z,101042.92
2019-06-08T17:57:57.297Z,101058.98
2019-06-08T18:00:29.364Z,101058.98
2019-06-08T18:03:01.062Z,101055.47
2019-06-08T18:05:33.763Z,101059.05
2019-06-08T18:08:07.711Z,101057.59
2019-06-08T18:10:41.454Z,101077.45
2019-06-08T18:13:12.713Z,101077.45
2019-06-08T18:15:44.893Z,101077.02
2019-06-08T18:18:17.691Z,101072.55
2019-06-08T18:20:52.053Z,101081.66
2019-06-08T18:23:23.267Z,101083.75
2019-06-08T18:25:58.054Z,101086.09
2019-06-08T18:28:29.713Z,101089.89
2019-06-08T18:31:00.538Z,101084.66
2019-06-08T18:33:32.265Z,101101.49
2019-06-08T18:36:04.067Z,101101.49
2019-06-08T18:38:38.229Z,101104.23
2019-06-08T18:41:09.072Z,101112.88
2019-06-08T18:43:41.524Z,101106.09
2019-06-08T18:46:14.520Z,101113.27
2019-06-08T18:48:49.070Z,101111.58
2019-06-08T18:51:19.805Z,101118.36
2019-06-08T18:54:07.105Z,101120.66
2019-06-08T18:56:27.452Z,101123.80
2019-06-08T18:58:58.799Z,101126.54
2019-06-08T19:01:31.241Z,101129.20
2019-06-08T19:04:03.121Z,101127.30
2019-06-08T19:06:34.765Z,101130.52
2019-06-08T19:09:07.568Z,101136.85
2019-06-08T19:11:40.974Z,101136.85
2019-06-08T19:14:13.295Z,101145.53
2019-06-08T19:18:17.876Z,101151.94
2019-06-08T19:20:52.953Z,101156.23
2019-06-08T19:23:23.645Z,101160.70
2019-06-08T19:25:57.889Z,101168.09
2019-06-08T19:28:36.393Z,101168.09
2019-06-08T19:31:03.752Z,101167.61
2019-06-08T19:33:37.280Z,101173.09
2019-06-08T19:36:09.782Z,101177.34
2019-06-08T19:38:42.699Z,101180.75
2019-06-08T19:41:14.657Z,101188.89
2019-06-08T19:43:53.211Z,101184.85
2019-06-08T19:46:20.493Z,101184.85
2019-06-08T19:48:54.992Z,101185.30
2019-06-08T19:51:27.849Z,101197.72
2019-06-08T19:53:59.347Z,101197.91
2019-06-08T19:56:31.314Z,101197.91
2019-06-08T19:59:05.131Z,101203.84
2019-06-08T20:01:37.924Z,101209.72
2019-06-08T20:04:09.766Z,101206.41
2019-06-08T20:06:40.727Z,101220.12
2019-06-08T20:09:12.790Z,101220.51
2019-06-08T20:11:49.232Z,101212.28
2019-06-08T20:14:18.426Z,101215.20
2019-06-08T20:16:50.937Z,101218.16
2019-06-08T20:19:23.825Z,101225.21
2019-06-08T20:21:55.369Z,101226.66
2019-06-08T20:24:28.386Z,101228.46
2019-06-08T20:27:00.263Z,101228.46
2019-06-08T20:29:32.012Z,101227.80
2019-06-08T20:32:04.070Z,101234.13
2019-06-08T20:34:38.115Z,101232.89
2019-06-08T20:37:09.624Z,101232.50
2019-06-08T20:39:57.414Z,101236.69
2019-06-08T20:42:17.362Z,101236.69
2019-06-08T20:44:49.128Z,101236.87
2019-06-08T20:47:23.301Z,101243.69
2019-06-08T20:49:55.305Z,101235.63
2019-06-08T20:52:28.163Z,101241.33
2019-06-08T20:55:00.306Z,101249.08
2019-06-08T20:57:31.999Z,101247.66
2019-06-08T21:00:08.457Z,101249.74
2019-06-08T21:02:37.347Z,101248.23
2019-06-08T21:05:09.309Z,101251.42
2019-06-08T21:07:41.367Z,101244.92
2019-06-08T21:10:13.066Z,101256.07
2019-06-08T21:12:47.116Z,101247.00
2019-06-08T21:15:18.718Z,101249.56
2019-06-08T21:17:52.267Z,101261.09
2019-06-08T21:20:24.322Z,101258.53
2019-06-08T21:22:59.748Z,101250.97
2019-06-08T21:25:30.709Z,101249.28
2019-06-08T21:28:01.459Z,101256.39
2019-06-08T21:30:33.297Z,101261.94
2019-06-08T21:33:04.858Z,101265.91
2019-06-08T21:35:37.328Z,101262.78
2019-06-08T21:38:22.735Z,101257.90
2019-06-08T21:40:42.779Z,101259.77
2019-06-08T21:43:13.453Z,101256.00
2019-06-08T21:45:47.361Z,101256.84
2019-06-08T21:48:18.678Z,101245.03
2019-06-08T21:50:51.660Z,101258.47
2019-06-08T21:53:22.711Z,101258.47
2019-06-08T21:55:54.231Z,101262.16
2019-06-08T21:58:26.062Z,101258.53
2019-06-08T22:00:59.701Z,101243.80
2019-06-08T22:03:31.362Z,101246.13
2019-06-08T22:06:03.058Z,101246.13
2019-06-08T22:08:37.403Z,101253.83
2019-06-08T22:11:08.612Z,101260.16
2019-06-08T22:13:40.706Z,101254.28
2019-06-08T22:16:11.372Z,101250.91
2019-06-08T22:18:42.872Z,101252.98
2019-06-08T22:21:17.334Z,101254.00
2019-06-08T22:23:48.289Z,101251.27
2019-06-08T22:26:20.119Z,101252.98
2019-06-08T22:28:52.538Z,101252.59
2019-06-08T22:31:24.349Z,101259.98
2019-06-08T22:33:58.764Z,101251.75
2019-06-08T22:36:29.135Z,101259.98
2019-06-08T22:40:14.407Z,101246.81
2019-06-08T22:42:48.141Z,101266.48
2019-06-08T22:45:19.403Z,101265.99
2019-06-08T22:47:52.920Z,101268.59
2019-06-08T22:50:27.411Z,101261.20
2019-06-08T22:53:00.627Z,101264.30
2019-06-08T22:55:32.296Z,101268.06
2019-06-08T22:58:04.681Z,101271.02
2019-06-08T23:00:51.689Z,101269.44
2019-06-08T23:03:10.290Z,101264.37
2019-06-08T23:05:42.293Z,101264.37
2019-06-08T23:08:14.299Z,101275.17
2019-06-08T23:10:48.061Z,101277.06
2019-06-08T23:13:19.351Z,101271.75
2019-06-08T23:15:51.045Z,101271.75
2019-06-08T23:18:23.294Z,101279.80
2019-06-08T23:20:55.607Z,101281.49
2019-06-08T23:23:28.217Z,101265.81
2019-06-08T23:26:02.131Z,101265.81
2019-06-08T23:28:33.537Z,101265.42
2019-06-08T23:31:21.346Z,101274.32
2019-06-08T23:33:44.329Z,101266.94
2019-06-08T23:36:45.939Z,101266.94
2019-06-08T23:38:49.575Z,101266.27
2019-06-08T23:41:21.366Z,101267.61
2019-06-08T23:43:53.285Z,101267.61
2019-06-08T23:46:27.226Z,101274.32
2019-06-08T23:49:00.652Z,101265.25
2019-06-08T23:51:31.779Z,101278.47
2019-06-08T23:54:04.259Z,101283.22
2019-06-08T23:56:37.028Z,101289.44
2019-06-08T23:59:09.500Z,101289.44
